Time;durP1;ratioP1;P1;durP2;ratioP2;P2;SDS_P1;SDS_P2;PMS_P1;PMS_P2;Temp;Humidity;BMP_temperature;BMP_pressure;BME280_temperature;BME280_humidity;BME280_pressure;Samples;Min_cycle;Max_cycle;Signal;HPM_P1;HPM_P2
2024/01/09 00:00:37;;;;;;;;;;;15.80;53.10;;;;;;10148830;28;95847;-61
2024/01/09 00:05:38;;;;;;;;;;;15.80;53.60;;;;;;10139498;28;93744;-61
2024/01/09 00:10:40;;;;;;;;;;;15.80;53.60;;;;;;10147266;28;93513;-61
2024/01/09 00:15:42;;;;;;;;;;;15.80;53.50;;;;;;10137078;28;93420;-61
2024/01/09 00:20:44;;;;;;;;;;;15.80;53.40;;;;;;10148339;28;93386;-61
2024/01/09 00:25:46;;;;;;;;;;;15.70;53.10;;;;;;10145688;28;93579;-62
2024/01/09 00:30:48;;;;;;;;;;;15.70;53.00;;;;;;10145803;28;93817;-61
2024/01/09 00:35:50;;;;;;;;;;;15.70;52.90;;;;;;10149071;28;92907;-61
2024/01/09 00:40:52;;;;;;;;;;;15.60;52.70;;;;;;10148898;28;94822;-62
2024/01/09 00:45:54;;;;;;;;;;;15.60;52.60;;;;;;10140580;28;93807;-61
2024/01/09 00:50:56;;;;;;;;;;;15.60;52.60;;;;;;10163271;28;96200;-61
2024/01/09 00:55:58;;;;;;;;;;;15.60;52.90;;;;;;10168619;28;92988;-62
2024/01/09 01:01:00;;;;;;;;;;;15.60;53.20;;;;;;10144552;28;93463;-61
2024/01/09 01:06:02;;;;;;;;;;;15.60;53.10;;;;;;10149361;28;94131;-61
2024/01/09 01:11:08;;;;;;;;;;;15.60;53.10;;;;;;10131170;28;93678;-61
2024/01/09 01:16:10;;;;;;;;;;;15.60;52.80;;;;;;10157037;28;94255;-60
2024/01/09 01:21:12;;;;;;;;;;;15.70;52.50;;;;;;10152385;28;92924;-61
2024/01/09 01:26:14;;;;;;;;;;;15.70;52.20;;;;;;10146736;28;92383;-61
2024/01/09 01:31:16;;;;;;;;;;;15.70;52.00;;;;;;10154140;28;94700;-61
2024/01/09 01:36:18;;;;;;;;;;;15.60;51.90;;;;;;10155412;28;95256;-61
2024/01/09 01:41:20;;;;;;;;;;;15.60;51.80;;;;;;10153448;28;95400;-61
2024/01/09 01:46:22;;;;;;;;;;;15.50;51.90;;;;;;10138926;28;94754;-61
2024/01/09 01:51:23;;;;;;;;;;;15.50;52.70;;;;;;10159252;28;94436;-60
2024/01/09 01:56:25;;;;;;;;;;;15.60;52.80;;;;;;10150223;28;93432;-61
2024/01/09 02:06:42;;;;;;;;;;;15.50;52.30;;;;;;10104076;23;95224;-59
2024/01/09 02:11:46;;;;;;;;;;;15.50;52.10;;;;;;10191234;28;93944;-59
2024/01/09 02:16:49;;;;;;;;;;;15.50;51.90;;;;;;10210465;28;93427;-59
2024/01/09 02:21:51;;;;;;;;;;;15.50;51.80;;;;;;10208465;28;93640;-60
2024/01/09 02:27:02;;;;;;;;;;;15.50;51.90;;;;;;10198565;28;95025;-60
2024/01/09 02:32:06;;;;;;;;;;;15.50;51.60;;;;;;10189270;28;96793;-60
2024/01/09 02:37:08;;;;;;;;;;;15.50;51.40;;;;;;10184609;28;93741;-60
2024/01/09 02:42:10;;;;;;;;;;;15.50;51.60;;;;;;10186772;28;93094;-59
2024/01/09 02:47:11;;;;;;;;;;;15.50;52.10;;;;;;10198316;28;93766;-60
2024/01/09 02:52:14;;;;;;;;;;;15.50;52.30;;;;;;10200236;28;94001;-59
2024/01/09 02:57:16;;;;;;;;;;;15.40;52.10;;;;;;10209164;28;93898;-60
2024/01/09 03:02:18;;;;;;;;;;;15.50;52.00;;;;;;10203374;28;94577;-60
2024/01/09 03:07:19;;;;;;;;;;;15.50;51.80;;;;;;10174690;28;93527;-60
2024/01/09 03:12:22;;;;;;;;;;;15.50;51.50;;;;;;10182035;28;94506;-58
2024/01/09 03:17:23;;;;;;;;;;;15.50;51.40;;;;;;10192439;28;94535;-60
2024/01/09 03:22:26;;;;;;;;;;;15.50;51.40;;;;;;10173129;28;95702;-60
2024/01/09 03:27:27;;;;;;;;;;;15.40;51.20;;;;;;10205670;28;94140;-59
2024/01/09 03:32:29;;;;;;;;;;;15.40;51.20;;;;;;10181867;28;94168;-60
2024/01/09 03:37:31;;;;;;;;;;;15.40;51.80;;;;;;10183211;28;93488;-61
2024/01/09 03:42:33;;;;;;;;;;;15.40;52.20;;;;;;10190648;28;94536;-61
2024/01/09 03:47:35;;;;;;;;;;;15.40;52.00;;;;;;10203729;28;93513;-60
2024/01/09 03:52:36;;;;;;;;;;;15.40;51.80;;;;;;10186755;28;93776;-60
2024/01/09 03:57:38;;;;;;;;;;;15.30;51.60;;;;;;10199917;28;93256;-59
2024/01/09 04:02:40;;;;;;;;;;;15.30;51.50;;;;;;10219357;28;94442;-60
2024/01/09 04:07:42;;;;;;;;;;;15.40;51.60;;;;;;10182431;28;94283;-59
2024/01/09 04:12:43;;;;;;;;;;;15.40;51.50;;;;;;10197560;28;96384;-59
2024/01/09 04:17:45;;;;;;;;;;;15.40;51.20;;;;;;10201499;28;93968;-60
2024/01/09 04:22:47;;;;;;;;;;;15.40;51.10;;;;;;10202834;28;93502;-60
2024/01/09 04:27:49;;;;;;;;;;;15.40;50.90;;;;;;10202339;28;94099;-60
2024/01/09 04:32:51;;;;;;;;;;;15.30;51.20;;;;;;10195157;28;94825;-60
2024/01/09 04:37:53;;;;;;;;;;;15.30;51.80;;;;;;10186041;28;93570;-60
2024/01/09 04:42:55;;;;;;;;;;;15.40;52.00;;;;;;10198056;28;94429;-59
2024/01/09 04:47:57;;;;;;;;;;;15.40;51.90;;;;;;10192815;28;93020;-61
2024/01/09 04:52:59;;;;;;;;;;;15.50;51.70;;;;;;10195002;28;93466;-60
2024/01/09 04:58:01;;;;;;;;;;;15.60;51.50;;;;;;10181122;28;93489;-59
2024/01/09 05:03:02;;;;;;;;;;;15.60;51.30;;;;;;10193643;28;96857;-60
2024/01/09 05:08:05;;;;;;;;;;;15.60;51.30;;;;;;10180195;28;94574;-60
2024/01/09 05:13:06;;;;;;;;;;;15.50;51.20;;;;;;10169904;28;94366;-60
2024/01/09 05:18:08;;;;;;;;;;;15.50;51.20;;;;;;10184207;28;94564;-58
2024/01/09 05:23:10;;;;;;;;;;;15.40;51.30;;;;;;10190284;28;94446;-68
2024/01/09 05:28:12;;;;;;;;;;;15.40;51.30;;;;;;10182712;28;93411;-60
2024/01/09 05:33:14;;;;;;;;;;;15.30;51.40;;;;;;10190965;28;93572;-60
2024/01/09 05:38:16;;;;;;;;;;;15.30;51.40;;;;;;10169312;28;92549;-60
2024/01/09 05:43:20;;;;;;;;;;;15.20;51.50;;;;;;10167012;28;92904;-61
2024/01/09 05:48:22;;;;;;;;;;;15.20;51.70;;;;;;10186396;28;92557;-61
2024/01/09 05:53:24;;;;;;;;;;;15.30;51.70;;;;;;10189977;28;95955;-60
2024/01/09 05:58:26;;;;;;;;;;;15.60;51.40;;;;;;10172106;28;93312;-60
2024/01/09 06:03:27;;;;;;;;;;;15.90;51.00;;;;;;10194297;28;93951;-62
2024/01/09 06:08:29;;;;;;;;;;;16.20;50.40;;;;;;10200863;28;94139;-60
2024/01/09 06:13:31;;;;;;;;;;;16.40;50.00;;;;;;10193696;28;94544;-60
2024/01/09 06:18:34;;;;;;;;;;;16.60;49.90;;;;;;10199121;28;93426;-60
2024/01/09 06:23:36;;;;;;;;;;;16.70;50.60;;;;;;10198788;28;93533;-60
2024/01/09 06:28:38;;;;;;;;;;;16.90;50.30;;;;;;10219352;28;92793;-60
2024/01/09 06:33:40;;;;;;;;;;;16.90;50.10;;;;;;10214215;28;93826;-61
2024/01/09 06:38:42;;;;;;;;;;;16.90;50.10;;;;;;10179333;28;95423;-61
2024/01/09 06:43:44;;;;;;;;;;;16.90;50.00;;;;;;10177925;28;95420;-60
2024/01/09 06:48:46;;;;;;;;;;;16.80;50.00;;;;;;10194974;28;93521;-62
2024/01/09 06:53:49;;;;;;;;;;;16.80;50.40;;;;;;10212850;28;92593;-61
2024/01/09 06:58:51;;;;;;;;;;;16.90;50.10;;;;;;10186701;28;94047;-61
2024/01/09 07:03:54;;;;;;;;;;;16.90;49.80;;;;;;10191641;28;94760;-64
2024/01/09 07:08:57;;;;;;;;;;;16.90;50.30;;;;;;10189517;28;94852;-62
2024/01/09 07:14:00;;;;;;;;;;;16.80;53.10;;;;;;10208638;28;94360;-61
2024/01/09 07:19:02;;;;;;;;;;;16.80;51.90;;;;;;10210803;28;93772;-60
2024/01/09 07:24:04;;;;;;;;;;;16.70;50.80;;;;;;10201814;28;94138;-61
2024/01/09 07:29:06;;;;;;;;;;;16.50;53.10;;;;;;10210521;28;94060;-59
2024/01/09 07:34:08;;;;;;;;;;;16.40;53.10;;;;;;10204792;28;95504;-61
2024/01/09 07:39:11;;;;;;;;;;;16.30;52.40;;;;;;10202754;28;93077;-61
2024/01/09 07:44:13;;;;;;;;;;;16.20;52.40;;;;;;10225253;28;94531;-61
2024/01/09 07:49:15;;;;;;;;;;;16.10;52.60;;;;;;10211554;28;93107;-60
2024/01/09 07:54:17;;;;;;;;;;;16.10;52.90;;;;;;10200103;28;94743;-59
2024/01/09 07:59:20;;;;;;;;;;;15.90;53.10;;;;;;10192685;28;93699;-60
2024/01/09 08:04:23;;;;;;;;;;;15.90;53.50;;;;;;10199067;28;93351;-60
2024/01/09 08:09:24;;;;;;;;;;;15.80;54.00;;;;;;10220605;28;96021;-62
2024/01/09 08:14:26;;;;;;;;;;;15.70;54.10;;;;;;10193276;28;93558;-61
2024/01/09 08:19:31;;;;;;;;;;;15.60;53.90;;;;;;10213575;28;112808;-59
2024/01/09 08:24:34;;;;;;;;;;;15.50;53.80;;;;;;10205502;28;95718;-60
2024/01/09 08:29:36;;;;;;;;;;;15.50;54.00;;;;;;10217670;28;93485;-61
2024/01/09 08:34:37;;;;;;;;;;;15.40;53.50;;;;;;10203089;28;94497;-61
2024/01/09 08:39:39;;;;;;;;;;;15.30;53.40;;;;;;10190328;28;94268;-60
2024/01/09 08:44:41;;;;;;;;;;;15.20;53.40;;;;;;10198042;28;93389;-61
2024/01/09 08:49:44;;;;;;;;;;;15.20;53.50;;;;;;10203530;28;94798;-60
2024/01/09 08:54:46;;;;;;;;;;;15.10;53.30;;;;;;10200354;28;93655;-60
2024/01/09 08:59:48;;;;;;;;;;;15.20;53.30;;;;;;10187232;28;93631;-60
2024/01/09 09:04:51;;;;;;;;;;;15.30;53.10;;;;;;10189757;28;94302;-60
2024/01/09 09:09:52;;;;;;;;;;;15.30;52.80;;;;;;10202958;28;93550;-60
2024/01/09 09:14:54;;;;;;;;;;;15.40;52.60;;;;;;10187734;28;96140;-61
2024/01/09 09:19:56;;;;;;;;;;;15.40;52.30;;;;;;10206859;28;94423;-60
2024/01/09 09:24:58;;;;;;;;;;;15.40;52.20;;;;;;10196959;28;94660;-60
2024/01/09 09:30:00;;;;;;;;;;;15.40;52.20;;;;;;10196634;28;93489;-60
2024/01/09 09:35:03;;;;;;;;;;;15.30;52.10;;;;;;10201913;28;93441;-60
2024/01/09 09:40:05;;;;;;;;;;;15.20;52.10;;;;;;10199026;28;94658;-60
2024/01/09 09:45:09;;;;;;;;;;;15.20;52.20;;;;;;10204201;28;93496;-61
2024/01/09 09:50:11;;;;;;;;;;;15.20;52.30;;;;;;10208038;28;93547;-61
2024/01/09 09:55:13;;;;;;;;;;;15.10;52.30;;;;;;10215931;28;94398;-61
2024/01/09 10:00:15;;;;;;;;;;;15.10;52.10;;;;;;10196112;28;93501;-61
2024/01/09 10:05:18;;;;;;;;;;;15.10;52.10;;;;;;10201942;28;96171;-61
2024/01/09 10:10:20;;;;;;;;;;;15.10;52.00;;;;;;10193270;28;94688;-60
2024/01/09 10:15:25;;;;;;;;;;;15.00;52.20;;;;;;10196776;28;94389;-60
2024/01/09 10:20:29;;;;;;;;;;;15.10;52.20;;;;;;10209247;28;94096;-59
2024/01/09 10:25:31;;;;;;;;;;;15.10;52.10;;;;;;10194191;28;94712;-59
2024/01/09 10:30:33;;;;;;;;;;;15.20;51.90;;;;;;10186171;28;94098;-61
2024/01/09 10:35:35;;;;;;;;;;;15.30;51.70;;;;;;10175036;28;93823;-61
2024/01/09 10:40:37;;;;;;;;;;;15.30;51.50;;;;;;10192145;28;93669;-61
2024/01/09 10:45:39;;;;;;;;;;;15.30;51.40;;;;;;10196463;28;94012;-68
2024/01/09 10:50:40;;;;;;;;;;;15.30;51.40;;;;;;10189353;28;93520;-61
2024/01/09 10:55:43;;;;;;;;;;;15.20;51.40;;;;;;10183633;28;97674;-61
2024/01/09 11:00:45;;;;;;;;;;;15.20;51.50;;;;;;10194090;28;93570;-61
2024/01/09 11:05:48;;;;;;;;;;;15.10;51.60;;;;;;10203930;28;92659;-61
2024/01/09 11:10:50;;;;;;;;;;;15.10;51.60;;;;;;10185690;28;93524;-61
2024/01/09 11:15:54;;;;;;;;;;;15.00;51.70;;;;;;10194227;28;94194;-61
2024/01/09 11:21:00;;;;;;;;;;;15.00;51.80;;;;;;10204081;28;93585;-60
2024/01/09 11:26:03;;;;;;;;;;;14.90;51.80;;;;;;10201714;28;95841;-61
2024/01/09 11:31:06;;;;;;;;;;;14.90;52.00;;;;;;10198011;28;93130;-61
2024/01/09 11:36:08;;;;;;;;;;;14.80;52.00;;;;;;10192960;28;94661;-61
2024/01/09 11:41:10;;;;;;;;;;;14.90;52.00;;;;;;10198829;28;94615;-60
2024/01/09 11:46:12;;;;;;;;;;;15.00;52.00;;;;;;10185291;28;96062;-60
2024/01/09 11:51:14;;;;;;;;;;;15.10;51.90;;;;;;10202759;28;94147;-60
2024/01/09 11:56:16;;;;;;;;;;;15.10;51.60;;;;;;10204840;28;92783;-60
2024/01/09 12:01:19;;;;;;;;;;;15.20;51.50;;;;;;10186666;28;93117;-60
2024/01/09 12:06:22;;;;;;;;;;;15.20;51.40;;;;;;10190864;28;93373;-59
2024/01/09 12:11:24;;;;;;;;;;;15.10;51.40;;;;;;10204230;28;94592;-59
2024/01/09 12:16:26;;;;;;;;;;;15.10;51.50;;;;;;10186562;28;94336;-59
2024/01/09 12:21:29;;;;;;;;;;;15.10;51.70;;;;;;10180449;28;93087;-59
2024/01/09 12:26:31;;;;;;;;;;;15.00;51.70;;;;;;10190028;28;94723;-59
2024/01/09 12:31:33;;;;;;;;;;;15.00;51.80;;;;;;10184997;28;94492;-60
2024/01/09 12:36:35;;;;;;;;;;;15.00;52.00;;;;;;10187867;28;96171;-60
2024/01/09 12:41:39;;;;;;;;;;;14.90;52.00;;;;;;10194364;28;94560;-60
2024/01/09 12:46:44;;;;;;;;;;;14.90;52.10;;;;;;10191402;28;93642;-60
2024/01/09 12:51:46;;;;;;;;;;;14.90;52.10;;;;;;10172464;28;93413;-61
2024/01/09 12:56:48;;;;;;;;;;;14.80;52.10;;;;;;10184760;28;94531;-60
2024/01/09 13:01:50;;;;;;;;;;;14.80;52.10;;;;;;10172088;28;94368;-60
2024/01/09 13:06:52;;;;;;;;;;;14.80;52.10;;;;;;10189744;28;93449;-60
2024/01/09 13:11:54;;;;;;;;;;;14.70;52.10;;;;;;10190213;28;92907;-60
2024/01/09 13:16:57;;;;;;;;;;;14.80;52.20;;;;;;10177215;28;94771;-63
2024/01/09 13:21:59;;;;;;;;;;;14.80;52.20;;;;;;10177435;28;93360;-60
2024/01/09 13:27:04;;;;;;;;;;;14.90;52.00;;;;;;10188639;28;97079;-60
2024/01/09 13:32:06;;;;;;;;;;;15.00;51.70;;;;;;10185802;28;94797;-60
2024/01/09 13:37:08;;;;;;;;;;;15.10;51.50;;;;;;10184866;28;93554;-59
2024/01/09 13:42:10;;;;;;;;;;;15.10;51.40;;;;;;10197508;28;94276;-60
2024/01/09 13:47:13;;;;;;;;;;;15.10;51.40;;;;;;10202957;28;92938;-60
2024/01/09 13:52:15;;;;;;;;;;;15.00;51.20;;;;;;10200843;28;94374;-61
2024/01/09 13:57:17;;;;;;;;;;;15.00;51.40;;;;;;10204225;28;94395;-59
2024/01/09 14:02:19;;;;;;;;;;;15.00;51.30;;;;;;10206601;28;92536;-59
2024/01/09 14:07:21;;;;;;;;;;;14.90;51.30;;;;;;10222870;28;94340;-59
2024/01/09 14:12:22;;;;;;;;;;;14.90;51.30;;;;;;10193381;28;93454;-60
2024/01/09 14:17:25;;;;;;;;;;;14.80;51.40;;;;;;10195363;28;96289;-62
2024/01/09 14:22:27;;;;;;;;;;;14.80;51.60;;;;;;10207502;28;93480;-60
2024/01/09 14:27:29;;;;;;;;;;;14.70;51.50;;;;;;10185005;28;94669;-60
2024/01/09 14:32:31;;;;;;;;;;;14.70;51.70;;;;;;10193315;28;96783;-60
2024/01/09 14:37:33;;;;;;;;;;;14.70;51.80;;;;;;10195705;28;94441;-61
2024/01/09 14:42:36;;;;;;;;;;;14.70;51.70;;;;;;10204018;28;93528;-60
2024/01/09 14:47:38;;;;;;;;;;;14.80;51.70;;;;;;10194733;28;93851;-59
2024/01/09 14:52:40;;;;;;;;;;;14.90;51.60;;;;;;10200644;28;93686;-59
2024/01/09 14:57:42;;;;;;;;;;;15.00;51.30;;;;;;10194767;28;94484;-59
2024/01/09 15:02:44;;;;;;;;;;;15.10;51.10;;;;;;10192006;28;94451;-60
2024/01/09 15:07:46;;;;;;;;;;;15.10;50.80;;;;;;10203531;28;96607;-60
2024/01/09 15:12:50;;;;;;;;;;;15.10;50.70;;;;;;10182317;28;93300;-60
2024/01/09 15:17:51;;;;;;;;;;;15.10;50.80;;;;;;10204366;28;94527;-60
2024/01/09 15:22:53;;;;;;;;;;;15.00;50.70;;;;;;10203950;28;93487;-60
2024/01/09 15:27:55;;;;;;;;;;;14.90;50.70;;;;;;10189077;28;93988;-60
2024/01/09 15:32:57;;;;;;;;;;;14.90;50.90;;;;;;10187727;28;94428;-59
2024/01/09 15:37:59;;;;;;;;;;;14.80;50.90;;;;;;10192902;28;93482;-59
2024/01/09 15:43:00;;;;;;;;;;;14.80;50.90;;;;;;10180681;28;93881;-60
2024/01/09 15:48:05;;;;;;;;;;;14.70;51.00;;;;;;10185390;28;94457;-59
2024/01/09 15:53:07;;;;;;;;;;;14.70;51.00;;;;;;10187634;28;93070;-59
2024/01/09 15:58:09;;;;;;;;;;;14.60;51.00;;;;;;10201194;28;95977;-59
2024/01/09 16:03:14;;;;;;;;;;;14.60;51.20;;;;;;10204692;28;94381;-59
2024/01/09 16:08:16;;;;;;;;;;;14.70;51.10;;;;;;10188007;28;94099;-60
2024/01/09 16:13:18;;;;;;;;;;;14.80;51.10;;;;;;10175443;28;94359;-60
2024/01/09 16:18:20;;;;;;;;;;;14.80;50.70;;;;;;10198050;28;94448;-60
2024/01/09 16:23:24;;;;;;;;;;;15.00;50.50;;;;;;10187601;28;94433;-60
2024/01/09 16:28:26;;;;;;;;;;;15.00;50.20;;;;;;10179166;28;94821;-60
2024/01/09 16:33:27;;;;;;;;;;;15.00;50.20;;;;;;10177456;28;92643;-61
2024/01/09 16:38:31;;;;;;;;;;;15.00;50.10;;;;;;10191427;28;94548;-61
2024/01/09 16:43:33;;;;;;;;;;;14.90;50.00;;;;;;10199880;28;93958;-60
2024/01/09 16:48:35;;;;;;;;;;;14.90;50.10;;;;;;10186776;28;97064;-61
2024/01/09 16:53:45;;;;;;;;;;;14.80;50.10;;;;;;10180216;28;94691;-60
2024/01/09 16:58:48;;;;;;;;;;;14.80;50.20;;;;;;10182860;28;93500;-60
2024/01/09 17:03:51;;;;;;;;;;;14.80;50.10;;;;;;10179481;28;93595;-60
2024/01/09 17:08:53;;;;;;;;;;;14.90;50.10;;;;;;10182281;28;94303;-61
2024/01/09 17:13:55;;;;;;;;;;;14.80;50.00;;;;;;10192437;28;93490;-60
2024/01/09 17:18:57;;;;;;;;;;;14.90;50.10;;;;;;10196646;28;94169;-61
2024/01/09 17:23:59;;;;;;;;;;;15.10;50.00;;;;;;10200714;28;92715;-60
2024/01/09 17:29:01;;;;;;;;;;;15.40;49.40;;;;;;10205095;28;93652;-61
2024/01/09 17:34:03;;;;;;;;;;;15.80;48.80;;;;;;10201663;28;94436;-60
2024/01/09 17:39:05;;;;;;;;;;;16.10;48.30;;;;;;10202594;28;99890;-60
2024/01/09 17:44:08;;;;;;;;;;;16.40;47.70;;;;;;10244768;28;93108;-61
2024/01/09 17:49:10;;;;;;;;;;;16.60;47.30;;;;;;10214067;28;93542;-61
2024/01/09 17:54:12;;;;;;;;;;;16.80;47.00;;;;;;10231738;28;93178;-60
2024/01/09 17:59:20;;;;;;;;;;;17.00;46.70;;;;;;10219268;28;93190;-61
2024/01/09 18:04:22;;;;;;;;;;;17.10;46.40;;;;;;10211956;28;93336;-61
2024/01/09 18:09:28;;;;;;;;;;;17.30;46.20;;;;;;10196698;28;94906;-61
2024/01/09 18:14:30;;;;;;;;;;;17.40;46.00;;;;;;10185767;28;93861;-65
2024/01/09 18:19:32;;;;;;;;;;;17.50;45.70;;;;;;10198781;28;93448;-60
2024/01/09 18:24:38;;;;;;;;;;;17.70;45.60;;;;;;10188171;28;93684;-59
2024/01/09 18:29:40;;;;;;;;;;;17.70;45.40;;;;;;10200010;28;99044;-60
2024/01/09 18:34:42;;;;;;;;;;;17.80;45.30;;;;;;10195541;28;94473;-60
2024/01/09 18:39:44;;;;;;;;;;;17.80;45.30;;;;;;10195710;28;94173;-60
2024/01/09 18:44:46;;;;;;;;;;;17.80;45.10;;;;;;10199477;28;93910;-61
2024/01/09 18:49:47;;;;;;;;;;;18.00;45.10;;;;;;10193111;28;94148;-60
2024/01/09 18:54:50;;;;;;;;;;;18.00;45.10;;;;;;10202744;28;95483;-60
2024/01/09 18:59:52;;;;;;;;;;;18.10;44.80;;;;;;10191765;28;93185;-62
2024/01/09 19:04:55;;;;;;;;;;;18.20;44.60;;;;;;10216386;28;93873;-61
2024/01/09 19:09:57;;;;;;;;;;;18.20;44.30;;;;;;10194548;28;93454;-61
2024/01/09 19:14:59;;;;;;;;;;;18.30;44.50;;;;;;10191304;28;94376;-61
2024/01/09 19:20:01;;;;;;;;;;;18.40;44.20;;;;;;10195165;28;95987;-60
2024/01/09 19:25:03;;;;;;;;;;;18.40;44.10;;;;;;10197725;28;94634;-61
2024/01/09 19:30:07;;;;;;;;;;;18.40;44.10;;;;;;10183047;28;94991;-60
2024/01/09 19:35:13;;;;;;;;;;;18.40;44.10;;;;;;10200072;28;93698;-60
2024/01/09 19:40:14;;;;;;;;;;;18.50;44.00;;;;;;10205038;28;94730;-60
2024/01/09 19:45:16;;;;;;;;;;;18.50;44.00;;;;;;10205927;28;94658;-60
2024/01/09 19:50:18;;;;;;;;;;;18.50;44.00;;;;;;10207713;28;93486;-60
2024/01/09 19:55:20;;;;;;;;;;;18.30;43.90;;;;;;10218891;28;92799;-61
2024/01/09 20:00:24;;;;;;;;;;;18.20;44.20;;;;;;10177504;28;93126;-61
2024/01/09 20:05:26;;;;;;;;;;;18.10;44.40;;;;;;10171169;28;93604;-61
2024/01/09 20:10:28;;;;;;;;;;;18.10;44.70;;;;;;10185805;28;95788;-61
2024/01/09 20:15:30;;;;;;;;;;;18.20;44.60;;;;;;10192078;28;93227;-61
2024/01/09 20:20:33;;;;;;;;;;;18.20;44.40;;;;;;10182426;28;94351;-61
2024/01/09 20:25:36;;;;;;;;;;;18.30;44.20;;;;;;10196992;28;93756;-61
2024/01/09 20:30:38;;;;;;;;;;;18.40;44.00;;;;;;10191857;28;95047;-61
2024/01/09 20:35:40;;;;;;;;;;;18.50;44.00;;;;;;10196033;28;93518;-61
2024/01/09 20:40:42;;;;;;;;;;;18.60;44.00;;;;;;10195390;28;93427;-61
2024/01/09 20:45:47;;;;;;;;;;;18.60;43.90;;;;;;10200281;28;93018;-60
2024/01/09 20:50:49;;;;;;;;;;;18.50;44.00;;;;;;10181656;28;93942;-61
2024/01/09 20:55:51;;;;;;;;;;;18.30;43.90;;;;;;10178113;28;93432;-60
2024/01/09 21:00:53;;;;;;;;;;;18.10;44.30;;;;;;10190788;28;95792;-60
2024/01/09 21:05:55;;;;;;;;;;;17.90;44.60;;;;;;10195059;28;93118;-60
2024/01/09 21:10:57;;;;;;;;;;;17.60;44.80;;;;;;10195615;28;94140;-61
2024/01/09 21:15:59;;;;;;;;;;;17.40;45.10;;;;;;10191863;28;94216;-61
2024/01/09 21:21:01;;;;;;;;;;;17.20;45.40;;;;;;10192229;28;94262;-59
2024/01/09 21:26:03;;;;;;;;;;;17.00;45.70;;;;;;10191036;28;93419;-60
2024/01/09 21:31:05;;;;;;;;;;;16.80;46.00;;;;;;10198927;28;94554;-60
2024/01/09 21:36:09;;;;;;;;;;;16.60;46.20;;;;;;10205860;28;92612;-60
2024/01/09 21:41:11;;;;;;;;;;;16.50;46.50;;;;;;10206171;28;93806;-60
2024/01/09 21:46:15;;;;;;;;;;;16.40;46.60;;;;;;10204805;28;94466;-62
2024/01/09 21:51:19;;;;;;;;;;;16.20;46.70;;;;;;10187782;28;96195;-60
2024/01/09 21:56:21;;;;;;;;;;;16.10;46.90;;;;;;10215441;28;92596;-61
2024/01/09 22:01:24;;;;;;;;;;;16.00;47.10;;;;;;10191219;28;94370;-65
2024/01/09 22:06:27;;;;;;;;;;;15.90;47.20;;;;;;10187209;28;94814;-60
2024/01/09 22:11:29;;;;;;;;;;;15.80;47.40;;;;;;10184832;28;94573;-60
2024/01/09 22:16:31;;;;;;;;;;;15.70;47.50;;;;;;10196866;28;94524;-60
2024/01/09 22:21:33;;;;;;;;;;;15.70;47.70;;;;;;10202608;28;93448;-60
2024/01/09 22:26:35;;;;;;;;;;;15.60;47.70;;;;;;10189868;28;92750;-60
2024/01/09 22:31:37;;;;;;;;;;;15.50;47.70;;;;;;10204647;28;94365;-61
2024/01/09 22:36:39;;;;;;;;;;;15.50;48.00;;;;;;10192248;28;93568;-60
2024/01/09 22:41:40;;;;;;;;;;;15.50;48.10;;;;;;10204367;28;96128;-60
2024/01/09 22:46:42;;;;;;;;;;;15.50;48.10;;;;;;10196237;28;93581;-60
2024/01/09 22:51:44;;;;;;;;;;;15.60;48.00;;;;;;10189210;28;94057;-60
2024/01/09 22:56:46;;;;;;;;;;;15.70;47.70;;;;;;10194546;28;94091;-62
2024/01/09 23:01:49;;;;;;;;;;;15.70;47.50;;;;;;10196717;28;94206;-61
2024/01/09 23:06:51;;;;;;;;;;;15.70;47.40;;;;;;10186179;28;93776;-60
2024/01/09 23:11:53;;;;;;;;;;;15.60;47.60;;;;;;10188687;28;94407;-60
2024/01/09 23:16:55;;;;;;;;;;;15.50;47.40;;;;;;10201881;28;93707;-60
2024/01/09 23:21:56;;;;;;;;;;;15.50;47.50;;;;;;10203990;28;93937;-60
2024/01/09 23:26:58;;;;;;;;;;;15.50;47.40;;;;;;10203283;28;94669;-61
2024/01/09 23:32:00;;;;;;;;;;;15.60;47.30;;;;;;10200939;28;96289;-60
2024/01/09 23:37:02;;;;;;;;;;;15.60;47.10;;;;;;10193550;28;94161;-60
2024/01/09 23:42:04;;;;;;;;;;;15.50;46.90;;;;;;10197512;28;93911;-67
2024/01/09 23:47:06;;;;;;;;;;;15.50;46.90;;;;;;10201035;28;94618;-60
2024/01/09 23:52:08;;;;;;;;;;;15.50;47.00;;;;;;10195223;28;93713;-60
2024/01/09 23:57:10;;;;;;;;;;;15.50;47.10;;;;;;10201258;28;93513;-61
